Time;durP1;ratioP1;P1;durP2;ratioP2;P2;SDS_P1;SDS_P2;PMS_P1;PMS_P2;Temp;Humidity;BMP_temperature;BMP_pressure;BME280_temperature;BME280_humidity;BME280_pressure;Samples;Min_cycle;Max_cycle;Signal;HPM_P1;HPM_P2
2024/01/20 00:00:55;;;;;;;12.10;8.60;;;3.00;81.00;;;;;;5044194;28;20085;-96
2024/01/20 00:03:21;;;;;;;10.45;8.02;;;3.00;81.00;;;;;;5014477;28;20034;-80
2024/01/20 00:05:46;;;;;;;12.30;9.40;;;3.00;81.00;;;;;;5014706;28;20017;-96
2024/01/20 00:08:12;;;;;;;11.27;8.68;;;2.90;80.90;;;;;;5006372;28;20482;-80
2024/01/20 00:10:41;;;;;;;12.15;8.80;;;3.00;81.00;;;;;;5014308;28;20044;-80
2024/01/20 00:13:07;;;;;;;12.45;9.10;;;2.90;80.90;;;;;;5056993;28;20440;-96
2024/01/20 00:15:33;;;;;;;12.32;8.55;;;3.00;80.90;;;;;;5029726;28;20045;-76
2024/01/20 00:17:58;;;;;;;12.68;8.68;;;3.00;81.00;;;;;;5008432;28;20018;-80
2024/01/20 00:20:24;;;;;;;13.30;9.15;;;2.90;80.90;;;;;;5030637;28;20021;-80
2024/01/20 00:22:50;;;;;;;13.27;8.85;;;2.90;80.90;;;;;;5030064;28;20025;-75
2024/01/20 00:25:16;;;;;;;12.10;8.32;;;2.90;80.90;;;;;;5063269;28;20033;-96
2024/01/20 00:27:41;;;;;;;12.55;8.75;;;2.90;80.90;;;;;;5037035;28;20045;-96
2024/01/20 00:30:08;;;;;;;14.23;9.30;;;2.90;80.90;;;;;;5014396;28;20025;-95
2024/01/20 00:32:33;;;;;;;13.65;8.55;;;2.90;80.90;;;;;;5006500;28;20026;-80
2024/01/20 00:35:00;;;;;;;12.40;9.02;;;2.90;80.90;;;;;;5026413;28;20037;-79
2024/01/20 00:37:26;;;;;;;12.75;9.02;;;2.90;80.90;;;;;;5035626;28;20033;-95
2024/01/20 00:39:52;;;;;;;13.65;9.00;;;2.90;80.90;;;;;;5027950;28;20033;-79
2024/01/20 00:42:18;;;;;;;13.38;9.05;;;2.90;80.90;;;;;;5031222;28;20049;-81
2024/01/20 00:44:44;;;;;;;16.67;9.45;;;2.80;80.90;;;;;;5016876;28;20151;-75
2024/01/20 00:47:09;;;;;;;14.10;8.98;;;2.80;80.90;;;;;;5027465;28;20079;-76
2024/01/20 00:49:35;;;;;;;14.23;9.95;;;2.90;80.90;;;;;;5053034;28;20061;-79
2024/01/20 00:52:01;;;;;;;12.95;8.85;;;2.90;80.90;;;;;;5028374;28;20033;-81
2024/01/20 00:54:26;;;;;;;12.60;8.27;;;2.80;80.90;;;;;;5017334;28;20075;-75
2024/01/20 00:56:52;;;;;;;15.07;10.10;;;2.90;80.90;;;;;;5039901;28;20128;-96
2024/01/20 00:59:18;;;;;;;12.82;8.30;;;2.80;80.90;;;;;;5039528;28;20091;-96
2024/01/20 01:01:44;;;;;;;14.55;9.55;;;2.80;80.90;;;;;;5042387;28;20026;-75
2024/01/20 01:04:09;;;;;;;14.02;8.52;;;2.80;80.90;;;;;;5029913;28;20108;-80
2024/01/20 01:06:36;;;;;;;14.90;8.68;;;2.80;80.90;;;;;;5028392;28;20034;-80
2024/01/20 01:09:02;;;;;;;13.15;8.85;;;2.80;80.90;;;;;;5032914;28;20029;-80
2024/01/20 01:11:28;;;;;;;13.32;8.70;;;2.80;80.90;;;;;;5033101;28;20024;-96
2024/01/20 01:13:53;;;;;;;12.85;9.35;;;2.80;80.90;;;;;;5035661;28;20060;-75
2024/01/20 01:16:19;;;;;;;12.70;8.68;;;2.80;80.90;;;;;;5011916;28;20033;-79
2024/01/20 01:18:45;;;;;;;13.43;8.73;;;2.80;80.90;;;;;;5024959;28;20026;-79
2024/01/20 01:21:11;;;;;;;13.90;8.88;;;2.80;80.90;;;;;;5051014;28;20076;-96
2024/01/20 01:23:36;;;;;;;14.02;8.85;;;2.80;80.80;;;;;;5031942;28;20055;-96
2024/01/20 01:26:02;;;;;;;11.68;8.02;;;2.90;80.90;;;;;;5012773;28;20121;-75
2024/01/20 01:28:28;;;;;;;14.93;9.23;;;2.80;80.90;;;;;;5024337;28;20099;-75
2024/01/20 01:30:54;;;;;;;14.38;8.90;;;2.80;80.90;;;;;;5056159;28;20076;-96
2024/01/20 01:33:19;;;;;;;14.48;9.30;;;2.80;80.90;;;;;;5029176;28;20038;-79
2024/01/20 01:35:45;;;;;;;13.27;8.82;;;2.80;80.90;;;;;;5046407;28;20097;-96
2024/01/20 01:38:11;;;;;;;15.13;9.18;;;2.80;81.00;;;;;;5027351;28;20034;-96
2024/01/20 01:40:36;;;;;;;12.95;8.02;;;2.80;80.90;;;;;;5016719;28;20025;-78
2024/01/20 01:43:02;;;;;;;13.63;8.85;;;2.80;80.90;;;;;;5025170;28;20045;-75
2024/01/20 01:45:28;;;;;;;13.38;8.82;;;2.80;80.90;;;;;;5068751;28;20128;-78
2024/01/20 01:47:55;;;;;;;14.10;8.55;;;2.80;80.90;;;;;;5058315;28;20024;-80
2024/01/20 01:50:21;;;;;;;13.25;8.73;;;2.80;80.90;;;;;;5046921;28;20484;-75
2024/01/20 01:52:48;;;;;;;11.32;8.05;;;2.80;80.90;;;;;;5058516;28;20035;-78
2024/01/20 01:55:15;;;;;;;12.98;8.65;;;2.80;80.90;;;;;;5057623;28;20022;-75
2024/01/20 01:57:42;;;;;;;12.43;7.97;;;2.80;80.90;;;;;;5054818;28;20036;-75
2024/01/20 02:00:09;;;;;;;12.63;8.75;;;2.80;80.90;;;;;;5031689;28;20104;-79
2024/01/20 02:02:35;;;;;;;13.15;8.18;;;2.80;80.90;;;;;;5041768;28;20048;-80
2024/01/20 02:05:00;;;;;;;12.15;8.32;;;2.80;80.90;;;;;;5045299;28;20582;-79
2024/01/20 02:07:28;;;;;;;12.25;7.93;;;2.80;80.90;;;;;;5044711;28;20294;-75
2024/01/20 02:09:55;;;;;;;12.90;8.02;;;2.80;80.90;;;;;;5062281;28;20042;-80
2024/01/20 02:12:22;;;;;;;12.20;7.80;;;2.80;80.90;;;;;;5054050;28;20025;-80
2024/01/20 02:14:48;;;;;;;12.63;8.35;;;2.80;80.90;;;;;;5048196;28;20029;-77
2024/01/20 02:17:14;;;;;;;12.40;8.20;;;2.80;80.90;;;;;;5029115;28;20025;-75
2024/01/20 02:19:40;;;;;;;12.38;8.07;;;2.80;80.90;;;;;;5028220;28;20040;-91
2024/01/20 02:22:14;;;;;;;13.75;8.18;;;2.80;80.90;;;;;;5055283;28;20028;-96
2024/01/20 02:24:45;;;;;;;12.18;8.25;;;2.80;81.00;;;;;;5039847;28;20036;-80
2024/01/20 02:27:11;;;;;;;13.05;8.85;;;2.80;80.90;;;;;;5042847;28;20028;-75
2024/01/20 02:29:40;;;;;;;12.80;7.93;;;2.80;81.00;;;;;;5049139;28;20032;-80
2024/01/20 02:32:06;;;;;;;13.07;7.68;;;2.80;80.90;;;;;;5030668;28;20034;-96
2024/01/20 02:34:32;;;;;;;12.30;8.20;;;2.80;80.90;;;;;;5060094;28;20029;-94
2024/01/20 02:36:58;;;;;;;12.25;7.80;;;2.80;80.90;;;;;;5048760;28;20024;-75
2024/01/20 02:39:24;;;;;;;12.75;8.05;;;2.80;80.90;;;;;;5055066;28;20024;-96
2024/01/20 02:41:50;;;;;;;12.80;7.97;;;2.80;80.90;;;;;;5040563;28;20449;-95
2024/01/20 02:44:17;;;;;;;12.70;7.95;;;2.80;80.90;;;;;;5033182;28;20093;-80
2024/01/20 02:46:42;;;;;;;13.05;8.00;;;2.80;80.90;;;;;;5024264;28;20287;-80
2024/01/20 02:49:08;;;;;;;12.70;7.72;;;2.80;80.90;;;;;;5048414;28;20029;-96
2024/01/20 02:51:34;;;;;;;14.05;8.32;;;2.80;80.90;;;;;;5039365;28;20021;-79
2024/01/20 02:54:00;;;;;;;13.02;8.10;;;2.80;81.50;;;;;;5065340;28;20489;-79
2024/01/20 02:56:25;;;;;;;13.40;7.90;;;2.80;80.90;;;;;;5026259;28;20045;-75
2024/01/20 02:58:51;;;;;;;13.15;7.65;;;2.80;81.00;;;;;;5023982;28;20041;-78
2024/01/20 03:01:17;;;;;;;11.57;7.38;;;2.80;81.00;;;;;;5038067;28;20049;-80
2024/01/20 03:03:44;;;;;;;13.38;8.13;;;2.80;80.90;;;;;;5027903;28;20095;-80
2024/01/20 03:06:11;;;;;;;12.15;7.25;;;2.80;81.00;;;;;;5058962;28;20022;-75
2024/01/20 03:08:36;;;;;;;11.82;7.70;;;2.80;81.00;;;;;;5042410;28;20083;-75
2024/01/20 03:11:02;;;;;;;12.73;8.05;;;2.80;81.00;;;;;;5013033;28;20021;-80
2024/01/20 03:13:28;;;;;;;11.30;7.43;;;2.80;81.00;;;;;;5034604;28;20040;-96
2024/01/20 03:15:54;;;;;;;11.18;7.25;;;2.70;81.00;;;;;;5028803;28;20030;-95
2024/01/20 03:18:19;;;;;;;13.50;8.23;;;2.70;81.00;;;;;;5032628;28;20017;-79
2024/01/20 03:20:45;;;;;;;13.13;9.10;;;2.70;81.00;;;;;;5028176;28;20202;-79
2024/01/20 03:23:11;;;;;;;11.85;7.45;;;2.80;81.00;;;;;;5026990;28;20083;-76
2024/01/20 03:25:37;;;;;;;12.27;8.00;;;2.70;80.90;;;;;;5025776;28;20123;-75
2024/01/20 03:28:03;;;;;;;10.68;7.22;;;2.80;81.00;;;;;;5026350;28;20013;-79
2024/01/20 03:30:28;;;;;;;11.95;7.57;;;2.80;80.90;;;;;;5007628;28;20038;-79
2024/01/20 03:32:54;;;;;;;13.00;7.55;;;2.80;81.00;;;;;;5023452;28;20073;-75
2024/01/20 03:35:22;;;;;;;11.45;7.25;;;2.80;81.00;;;;;;5054757;28;20076;-96
2024/01/20 03:37:48;;;;;;;12.25;7.15;;;2.70;81.00;;;;;;5054227;28;20025;-95
2024/01/20 03:40:14;;;;;;;13.30;8.13;;;2.70;81.00;;;;;;5026036;28;20033;-95
2024/01/20 03:42:39;;;;;;;11.80;6.97;;;2.70;81.00;;;;;;5038531;28;20029;-96
2024/01/20 03:45:06;;;;;;;12.02;7.53;;;2.70;81.00;;;;;;5022060;28;20026;-80
2024/01/20 03:47:32;;;;;;;12.15;7.30;;;2.70;81.10;;;;;;5027227;28;20040;-96
2024/01/20 03:49:57;;;;;;;11.43;7.57;;;2.70;81.10;;;;;;5032584;28;20038;-79
2024/01/20 03:52:23;;;;;;;11.63;7.25;;;2.70;81.00;;;;;;5028452;28;20033;-80
2024/01/20 03:54:49;;;;;;;12.80;8.07;;;2.70;81.00;;;;;;5032754;28;20040;-78
2024/01/20 03:57:15;;;;;;;12.55;7.47;;;2.70;81.10;;;;;;5024112;28;20033;-79
2024/01/20 03:59:40;;;;;;;11.13;6.95;;;2.70;81.10;;;;;;5009892;28;20109;-78
2024/01/20 04:02:06;;;;;;;11.25;8.25;;;2.70;81.00;;;;;;5013437;28;20162;-80
2024/01/20 04:04:32;;;;;;;11.35;6.95;;;2.70;81.00;;;;;;5007891;28;20387;-75
2024/01/20 04:07:00;;;;;;;11.18;7.13;;;2.60;81.00;;;;;;5061172;28;20025;-75
2024/01/20 04:09:26;;;;;;;11.20;6.68;;;2.70;81.00;;;;;;5055139;28;20035;-80
2024/01/20 04:11:52;;;;;;;13.75;7.85;;;2.60;81.00;;;;;;5043499;28;20480;-76
2024/01/20 04:14:20;;;;;;;12.00;7.22;;;2.60;81.00;;;;;;5027728;28;20021;-75
2024/01/20 04:16:46;;;;;;;10.32;6.68;;;2.60;81.00;;;;;;5032901;28;20026;-94
2024/01/20 04:19:12;;;;;;;11.57;7.55;;;2.60;81.00;;;;;;5041405;28;20072;-80
2024/01/20 04:21:42;;;;;;;12.18;7.15;;;2.60;81.00;;;;;;5046878;28;20045;-96
2024/01/20 04:24:08;;;;;;;12.35;7.72;;;2.60;81.10;;;;;;5042798;28;20026;-96
2024/01/20 04:26:34;;;;;;;11.70;7.07;;;2.60;81.10;;;;;;5038926;28;20044;-80
2024/01/20 04:29:00;;;;;;;13.35;8.15;;;2.60;81.10;;;;;;5045733;28;20022;-81
2024/01/20 04:31:26;;;;;;;12.23;7.57;;;2.60;81.10;;;;;;5027054;28;20095;-80
2024/01/20 04:33:55;;;;;;;11.27;7.30;;;2.60;81.10;;;;;;5027817;28;20033;-79
2024/01/20 04:36:21;;;;;;;11.18;7.00;;;2.60;81.10;;;;;;5013880;28;20032;-75
2024/01/20 04:38:47;;;;;;;11.85;7.20;;;2.60;81.10;;;;;;5027615;28;20026;-80
2024/01/20 04:41:13;;;;;;;11.27;6.95;;;2.60;81.00;;;;;;5019936;28;20109;-80
2024/01/20 04:43:39;;;;;;;12.43;7.22;;;2.60;81.00;;;;;;5023562;28;20037;-79
2024/01/20 04:46:04;;;;;;;10.65;7.13;;;2.60;81.00;;;;;;5018678;28;20033;-75
2024/01/20 04:48:31;;;;;;;11.30;7.03;;;2.60;81.00;;;;;;5030299;28;20025;-96
2024/01/20 04:50:57;;;;;;;10.82;6.88;;;2.50;80.90;;;;;;5021198;28;20049;-96
2024/01/20 04:53:22;;;;;;;11.10;6.72;;;2.50;80.90;;;;;;5019811;28;20025;-75
2024/01/20 04:55:49;;;;;;;10.60;6.55;;;2.60;81.00;;;;;;5018910;28;20030;-75
2024/01/20 04:58:15;;;;;;;11.68;7.30;;;2.50;81.00;;;;;;5041508;28;20065;-96
2024/01/20 05:00:40;;;;;;;11.07;7.75;;;2.50;81.00;;;;;;5024113;28;20029;-96
2024/01/20 05:03:06;;;;;;;10.73;7.05;;;2.50;81.00;;;;;;5035136;28;20116;-75
2024/01/20 05:05:32;;;;;;;11.68;7.85;;;2.50;81.00;;;;;;5031630;28;20033;-95
2024/01/20 05:07:58;;;;;;;13.18;8.25;;;2.50;81.10;;;;;;5060720;28;20036;-80
2024/01/20 05:10:24;;;;;;;11.45;7.03;;;2.50;81.00;;;;;;5012613;28;20022;-80
2024/01/20 05:12:50;;;;;;;12.68;7.90;;;2.50;81.00;;;;;;5007861;28;20036;-78
2024/01/20 05:15:16;;;;;;;11.25;6.72;;;2.50;81.00;;;;;;5027796;28;20132;-79
2024/01/20 05:17:42;;;;;;;12.18;6.97;;;2.50;81.00;;;;;;5027368;28;20036;-79
2024/01/20 05:20:08;;;;;;;12.13;7.35;;;2.50;81.00;;;;;;5025293;28;20413;-80
2024/01/20 05:22:34;;;;;;;12.90;7.20;;;2.50;81.00;;;;;;5025493;28;20034;-80
2024/01/20 05:25:02;;;;;;;11.18;7.72;;;2.50;81.00;;;;;;5024676;28;20048;-79
2024/01/20 05:27:31;;;;;;;11.68;7.28;;;2.50;81.10;;;;;;5032410;28;20029;-95
2024/01/20 05:29:56;;;;;;;11.32;7.32;;;2.50;81.10;;;;;;5063475;28;20029;-80
2024/01/20 05:32:22;;;;;;;11.70;7.10;;;2.40;81.00;;;;;;5042586;28;20465;-96
2024/01/20 05:34:48;;;;;;;12.57;7.75;;;2.50;81.10;;;;;;5032920;28;20038;-76
2024/01/20 05:37:14;;;;;;;13.25;7.65;;;2.50;81.10;;;;;;5004139;28;20022;-75
2024/01/20 05:39:40;;;;;;;11.98;7.32;;;2.40;81.00;;;;;;5013255;28;20156;-79
2024/01/20 05:42:06;;;;;;;11.68;6.95;;;2.40;81.00;;;;;;5028706;28;20017;-75
2024/01/20 05:44:33;;;;;;;11.38;7.20;;;2.40;81.00;;;;;;5019378;28;20052;-74
2024/01/20 05:46:59;;;;;;;12.02;7.30;;;2.40;81.10;;;;;;5024128;28;20017;-79
2024/01/20 05:49:24;;;;;;;11.18;6.78;;;2.40;81.00;;;;;;5030080;28;20021;-79
2024/01/20 05:51:50;;;;;;;10.48;7.38;;;2.40;81.10;;;;;;5028947;28;20029;-95
2024/01/20 05:54:16;;;;;;;12.05;7.57;;;2.40;81.00;;;;;;5017796;28;20041;-96
2024/01/20 05:56:41;;;;;;;10.88;7.00;;;2.40;81.00;;;;;;5029612;28;20116;-75
2024/01/20 05:59:07;;;;;;;11.68;7.70;;;2.40;81.00;;;;;;5047326;28;20101;-96
2024/01/20 06:01:33;;;;;;;12.50;7.55;;;2.40;81.10;;;;;;5060626;28;20117;-96
2024/01/20 06:03:59;;;;;;;11.68;7.65;;;2.40;81.70;;;;;;5022631;28;20117;-74
2024/01/20 06:06:25;;;;;;;11.15;7.53;;;2.40;81.10;;;;;;5022016;28;20076;-80
2024/01/20 06:08:50;;;;;;;11.15;6.78;;;2.40;81.10;;;;;;5043279;28;20018;-80
2024/01/20 06:11:16;;;;;;;11.43;7.25;;;2.40;81.10;;;;;;5021946;28;20462;-81
2024/01/20 06:13:42;;;;;;;10.43;6.57;;;2.40;81.00;;;;;;5025622;28;20068;-75
2024/01/20 06:16:11;;;;;;;10.23;6.55;;;2.40;81.00;;;;;;5031874;28;20026;-89
2024/01/20 06:18:37;;;;;;;11.73;7.28;;;2.40;81.10;;;;;;5017646;28;20404;-75
2024/01/20 06:21:03;;;;;;;12.07;6.75;;;2.40;81.10;;;;;;5013342;28;20397;-95
2024/01/20 06:23:28;;;;;;;11.05;6.65;;;2.40;81.10;;;;;;5039449;28;20121;-78
2024/01/20 06:25:54;;;;;;;11.50;7.03;;;2.40;81.10;;;;;;5028788;28;20022;-79
2024/01/20 06:28:21;;;;;;;11.20;6.80;;;2.40;81.10;;;;;;5039950;28;20086;-96
2024/01/20 06:30:49;;;;;;;10.55;7.53;;;2.40;81.10;;;;;;5005783;28;20033;-96
2024/01/20 06:33:16;;;;;;;11.40;7.25;;;2.40;81.10;;;;;;5037707;28;20022;-95
2024/01/20 06:35:42;;;;;;;10.40;6.82;;;2.40;81.10;;;;;;5039814;28;20021;-80
2024/01/20 06:38:07;;;;;;;10.45;6.82;;;2.40;81.70;;;;;;5039513;28;20065;-76
2024/01/20 06:40:33;;;;;;;10.43;6.40;;;2.40;81.10;;;;;;5029294;28;20037;-79
2024/01/20 06:42:59;;;;;;;11.00;7.10;;;2.30;81.00;;;;;;5028253;28;20038;-75
2024/01/20 06:45:25;;;;;;;11.60;7.00;;;2.30;81.70;;;;;;5031897;28;20473;-79
2024/01/20 06:47:50;;;;;;;12.55;6.88;;;2.30;81.10;;;;;;5030285;28;20034;-96
2024/01/20 06:50:16;;;;;;;10.88;7.35;;;2.30;81.10;;;;;;5030376;28;20026;-75
2024/01/20 06:52:42;;;;;;;10.95;6.75;;;2.30;81.10;;;;;;5014520;28;20034;-80
2024/01/20 06:55:08;;;;;;;11.57;6.93;;;2.30;81.10;;;;;;5036775;28;20116;-75
2024/01/20 06:57:34;;;;;;;11.57;7.15;;;2.30;81.10;;;;;;5029964;28;20040;-79
2024/01/20 07:00:00;;;;;;;10.27;6.25;;;2.30;81.10;;;;;;5032051;28;20025;-79
2024/01/20 07:02:26;;;;;;;11.55;7.40;;;2.30;81.10;;;;;;5044848;28;20117;-79
2024/01/20 07:04:51;;;;;;;11.77;7.22;;;2.30;81.10;;;;;;5018489;28;20069;-80
2024/01/20 07:07:17;;;;;;;10.63;7.50;;;2.30;81.10;;;;;;5064645;28;20060;-79
2024/01/20 07:09:43;;;;;;;11.02;6.82;;;2.30;81.10;;;;;;5015592;28;20276;-79
2024/01/20 07:12:08;;;;;;;10.80;6.55;;;2.30;81.20;;;;;;5029391;28;20038;-80
2024/01/20 07:14:35;;;;;;;10.75;6.72;;;2.30;81.20;;;;;;5016059;28;20018;-96
2024/01/20 07:17:01;;;;;;;10.63;6.63;;;2.30;81.20;;;;;;5032669;28;20018;-95
2024/01/20 07:19:27;;;;;;;10.57;6.60;;;2.30;81.20;;;;;;5025392;28;20088;-80
2024/01/20 07:21:53;;;;;;;10.32;6.15;;;2.30;81.20;;;;;;5024430;28;20049;-79
2024/01/20 07:24:18;;;;;;;12.18;7.65;;;2.30;81.20;;;;;;5026185;28;20123;-79
2024/01/20 07:26:44;;;;;;;11.68;7.03;;;2.30;81.20;;;;;;5029093;28;20503;-96
2024/01/20 07:29:10;;;;;;;10.32;6.78;;;2.30;81.10;;;;;;5034908;28;20021;-80
2024/01/20 07:31:35;;;;;;;10.38;6.55;;;2.30;81.10;;;;;;5044285;28;20040;-80
2024/01/20 07:34:01;;;;;;;11.32;7.05;;;2.20;81.10;;;;;;5026478;28;20029;-75
2024/01/20 07:36:27;;;;;;;11.82;7.75;;;2.20;81.10;;;;;;5032859;28;20017;-80
2024/01/20 07:38:52;;;;;;;10.80;7.28;;;2.30;81.20;;;;;;5036430;28;20025;-79
2024/01/20 07:41:18;;;;;;;9.82;6.80;;;2.30;81.20;;;;;;5037439;28;20025;-87
2024/01/20 07:43:44;;;;;;;10.60;6.70;;;2.20;81.20;;;;;;5061489;28;20071;-75
2024/01/20 07:46:10;;;;;;;10.25;6.30;;;2.20;81.10;;;;;;5013012;28;20064;-79
2024/01/20 07:48:36;;;;;;;9.77;6.38;;;2.20;81.10;;;;;;5027104;28;20066;-75
2024/01/20 07:51:02;;;;;;;11.55;7.05;;;2.30;81.20;;;;;;5043629;28;20030;-81
2024/01/20 07:53:28;;;;;;;11.23;7.10;;;2.30;81.20;;;;;;5010579;28;20022;-82
2024/01/20 07:55:54;;;;;;;10.82;7.00;;;2.20;81.10;;;;;;5026575;28;20105;-81
2024/01/20 07:58:20;;;;;;;11.50;6.57;;;2.20;81.10;;;;;;5039647;28;20136;-75
2024/01/20 08:00:45;;;;;;;10.27;6.97;;;2.30;81.20;;;;;;5027903;28;20052;-80
2024/01/20 08:03:11;;;;;;;9.98;5.95;;;2.30;81.20;;;;;;5030047;28;20079;-76
2024/01/20 08:05:37;;;;;;;10.65;7.30;;;2.20;81.10;;;;;;5030518;28;20108;-75
2024/01/20 08:08:03;;;;;;;10.05;6.32;;;2.30;81.20;;;;;;5029725;28;20455;-89
2024/01/20 08:10:29;;;;;;;8.93;5.82;;;2.20;81.10;;;;;;5031196;28;20033;-81
2024/01/20 08:12:55;;;;;;;9.85;6.70;;;2.20;81.20;;;;;;5031512;28;20032;-88
2024/01/20 08:15:21;;;;;;;9.85;6.78;;;2.30;81.20;;;;;;5014321;28;20147;-90
2024/01/20 08:17:46;;;;;;;10.70;6.28;;;2.30;81.20;;;;;;5041283;28;20438;-92
2024/01/20 08:20:12;;;;;;;10.35;6.68;;;2.30;81.20;;;;;;5038654;28;20060;-75
2024/01/20 08:22:38;;;;;;;10.80;6.80;;;2.30;81.20;;;;;;5044585;28;20036;-87
2024/01/20 08:25:04;;;;;;;10.32;6.75;;;2.30;81.20;;;;;;5023786;28;20579;-80
2024/01/20 08:27:30;;;;;;;9.25;5.97;;;2.30;81.10;;;;;;5026449;28;20025;-78
2024/01/20 08:29:57;;;;;;;11.65;7.35;;;2.30;81.20;;;;;;5014907;28;20026;-75
2024/01/20 08:32:22;;;;;;;11.18;7.03;;;2.30;81.10;;;;;;5007522;28;20033;-89
2024/01/20 08:34:48;;;;;;;12.00;7.15;;;2.30;81.10;;;;;;5024893;28;20014;-79
2024/01/20 08:37:14;;;;;;;10.13;6.47;;;2.30;81.10;;;;;;5012246;28;20033;-80
2024/01/20 08:39:40;;;;;;;10.10;6.53;;;2.30;81.10;;;;;;5019788;28;20185;-79
2024/01/20 08:42:05;;;;;;;9.98;6.10;;;2.30;81.10;;;;;;5021200;28;20029;-75
2024/01/20 08:44:32;;;;;;;10.07;6.05;;;2.30;81.10;;;;;;5027070;28;20562;-79
2024/01/20 08:46:58;;;;;;;9.70;6.47;;;2.30;81.10;;;;;;5031372;28;20021;-88
2024/01/20 08:49:24;;;;;;;10.43;6.50;;;2.30;81.10;;;;;;5010922;28;20029;-79
2024/01/20 08:51:52;;;;;;;9.65;6.38;;;2.30;81.10;;;;;;5030171;28;20025;-79
2024/01/20 08:54:18;;;;;;;10.88;6.50;;;2.40;81.20;;;;;;5042454;28;20546;-79
2024/01/20 08:56:43;;;;;;;9.10;5.97;;;2.40;81.20;;;;;;5014356;28;20385;-79
2024/01/20 08:59:09;;;;;;;8.65;6.10;;;2.40;81.10;;;;;;5029989;28;20048;-80
2024/01/20 09:01:35;;;;;;;9.45;6.22;;;2.40;81.10;;;;;;5014016;28;20032;-80
2024/01/20 09:04:01;;;;;;;9.70;6.47;;;2.40;81.10;;;;;;5012378;28;20407;-80
2024/01/20 09:06:27;;;;;;;9.13;5.95;;;2.40;81.10;;;;;;5029720;28;20495;-76
2024/01/20 09:08:52;;;;;;;9.57;6.45;;;2.50;81.10;;;;;;5013064;28;20440;-75
2024/01/20 09:11:18;;;;;;;10.30;6.07;;;2.50;81.10;;;;;;5042740;28;20037;-75
2024/01/20 09:13:46;;;;;;;9.10;5.50;;;2.50;81.10;;;;;;5015890;28;20521;-75
2024/01/20 09:16:12;;;;;;;8.60;6.05;;;2.50;81.10;;;;;;5019845;28;20358;-76
2024/01/20 09:18:38;;;;;;;9.88;6.40;;;2.50;81.10;;;;;;5013765;28;20060;-80
2024/01/20 09:21:08;;;;;;;9.45;5.63;;;2.50;81.10;;;;;;5006210;28;20109;-89
2024/01/20 09:23:35;;;;;;;9.52;5.88;;;2.60;81.10;;;;;;5012678;28;20048;-76
2024/01/20 09:26:01;;;;;;;9.50;5.53;;;2.60;81.10;;;;;;5027814;28;20021;-79
2024/01/20 09:28:26;;;;;;;9.20;6.05;;;2.60;81.10;;;;;;5009119;28;20517;-75
2024/01/20 09:30:52;;;;;;;9.70;6.18;;;2.60;81.10;;;;;;5012848;28;20120;-75
2024/01/20 09:33:21;;;;;;;8.88;6.35;;;2.60;81.10;;;;;;5031977;28;20014;-89
2024/01/20 09:35:47;;;;;;;8.00;5.43;;;2.70;81.10;;;;;;5011378;28;20060;-81
2024/01/20 09:38:13;;;;;;;10.18;5.88;;;2.70;81.10;;;;;;5037273;28;20307;-75
2024/01/20 09:40:38;;;;;;;8.57;5.68;;;2.60;81.00;;;;;;5008968;28;20584;-75
2024/01/20 09:43:04;;;;;;;10.15;5.65;;;2.70;81.10;;;;;;5014824;28;20497;-80
2024/01/20 09:45:31;;;;;;;8.18;6.25;;;2.70;81.10;;;;;;5027027;28;20053;-90
2024/01/20 09:47:57;;;;;;;10.73;6.32;;;2.70;81.10;;;;;;5029479;28;20087;-90
2024/01/20 09:50:23;;;;;;;8.38;5.35;;;2.70;81.10;;;;;;5027384;28;20108;-79
2024/01/20 09:53:22;;;;;;;10.25;6.13;;;2.70;81.10;;;;;;5027554;28;20121;-80
2024/01/20 09:55:48;;;;;;;8.93;5.50;;;2.80;81.20;;;;;;5007127;28;20034;-75
2024/01/20 09:58:16;;;;;;;8.55;5.65;;;2.80;81.10;;;;;;5010217;28;20071;-80
2024/01/20 10:00:43;;;;;;;9.63;6.05;;;2.80;81.20;;;;;;5045783;28;20070;-81
2024/01/20 10:03:10;;;;;;;9.65;6.05;;;2.80;81.10;;;;;;5003869;28;20030;-78
2024/01/20 10:05:37;;;;;;;9.43;5.88;;;2.80;81.20;;;;;;5023972;28;20021;-80
2024/01/20 10:08:04;;;;;;;7.90;5.30;;;2.80;81.20;;;;;;5025996;28;20503;-91
2024/01/20 10:10:31;;;;;;;8.82;5.90;;;2.80;81.20;;;;;;5030654;28;20034;-78
2024/01/20 10:12:57;;;;;;;7.97;5.40;;;2.80;81.20;;;;;;5034585;28;20497;-81
2024/01/20 10:15:28;;;;;;;9.23;6.03;;;2.80;81.20;;;;;;5013909;28;20116;-80
2024/01/20 10:17:55;;;;;;;8.68;5.93;;;2.90;81.30;;;;;;5017824;28;20409;-92
2024/01/20 10:20:22;;;;;;;8.80;5.60;;;2.90;81.30;;;;;;5008424;28;20022;-74
2024/01/20 10:22:49;;;;;;;9.90;6.25;;;2.90;81.30;;;;;;5043655;28;20088;-80
2024/01/20 10:25:19;;;;;;;8.18;5.40;;;2.90;81.30;;;;;;5012441;28;20065;-91
2024/01/20 10:27:50;;;;;;;9.10;5.25;;;2.90;81.30;;;;;;5014276;28;20116;-76
2024/01/20 10:30:24;;;;;;;10.25;5.97;;;2.90;81.40;;;;;;5016672;28;20100;-76
2024/01/20 10:32:51;;;;;;;10.18;6.40;;;2.90;81.30;;;;;;5016503;28;20027;-81
2024/01/20 10:35:17;;;;;;;7.78;5.55;;;2.90;81.30;;;;;;5017691;28;20021;-76
2024/01/20 10:37:44;;;;;;;9.73;5.85;;;2.90;81.30;;;;;;5016653;28;20025;-76
2024/01/20 10:40:14;;;;;;;9.20;6.05;;;3.00;81.40;;;;;;5015164;28;20367;-89
2024/01/20 10:42:46;;;;;;;8.48;5.60;;;3.00;81.40;;;;;;5023654;28;20045;-89
2024/01/20 10:45:17;;;;;;;9.23;6.22;;;3.00;81.40;;;;;;5029577;28;20049;-80
2024/01/20 10:48:05;;;;;;;8.48;5.90;;;3.00;81.40;;;;;;5027001;28;20488;-80
2024/01/20 10:50:32;;;;;;;9.30;5.53;;;3.00;81.40;;;;;;5030646;28;20061;-80
2024/01/20 10:52:59;;;;;;;10.20;6.38;;;3.00;81.30;;;;;;5032122;28;20029;-93
2024/01/20 10:55:25;;;;;;;8.75;6.15;;;3.10;81.40;;;;;;5025109;28;20026;-80
2024/01/20 10:57:51;;;;;;;9.65;5.93;;;3.10;81.40;;;;;;5015565;28;20104;-80
2024/01/20 11:00:19;;;;;;;9.00;5.88;;;3.10;81.40;;;;;;5032728;28;20029;-79
2024/01/20 11:02:45;;;;;;;8.52;5.40;;;3.10;81.40;;;;;;5030005;28;20034;-81
2024/01/20 11:05:38;;;;;;;9.38;6.18;;;3.10;81.40;;;;;;5028223;28;20037;-85
2024/01/20 11:08:05;;;;;;;8.77;5.68;;;3.10;81.50;;;;;;5043234;28;20033;-76
2024/01/20 11:10:52;;;;;;;9.70;6.35;;;3.10;81.30;;;;;;5027989;28;20035;-75
2024/01/20 11:13:18;;;;;;;9.65;5.80;;;3.20;81.50;;;;;;5024749;28;20332;-89
2024/01/20 11:15:49;;;;;;;8.30;5.53;;;3.20;81.40;;;;;;5042052;28;20029;-76
2024/01/20 11:18:17;;;;;;;8.48;5.50;;;3.20;81.50;;;;;;5011722;28;20029;-87
2024/01/20 11:20:53;;;;;;;10.70;6.88;;;3.20;81.50;;;;;;5029907;28;20049;-76
2024/01/20 11:23:19;;;;;;;9.00;6.63;;;3.20;81.50;;;;;;5024670;28;20113;-81
2024/01/20 11:25:45;;;;;;;11.80;6.50;;;3.20;81.50;;;;;;5023911;28;20056;-76
2024/01/20 11:28:32;;;;;;;9.57;6.43;;;3.20;81.50;;;;;;5008521;28;20053;-76
2024/01/20 11:30:58;;;;;;;8.95;5.63;;;3.30;81.60;;;;;;5012796;28;20060;-80
2024/01/20 11:33:24;;;;;;;9.93;6.63;;;3.20;81.50;;;;;;5013033;28;20026;-76
2024/01/20 11:35:53;;;;;;;10.65;6.95;;;3.30;81.50;;;;;;5035622;28;20021;-81
2024/01/20 11:38:20;;;;;;;9.00;6.05;;;3.30;81.50;;;;;;5063165;28;20022;-76
2024/01/20 11:40:56;;;;;;;9.75;6.28;;;3.30;81.50;;;;;;5021582;28;20029;-89
2024/01/20 11:43:22;;;;;;;10.80;6.68;;;3.30;81.60;;;;;;5022405;28;20033;-77
2024/01/20 11:45:51;;;;;;;9.38;5.85;;;3.30;81.50;;;;;;5033680;28;20636;-81
2024/01/20 11:48:18;;;;;;;10.05;6.20;;;3.30;81.50;;;;;;5016371;28;20704;-81
2024/01/20 11:50:44;;;;;;;9.82;6.15;;;3.30;81.50;;;;;;5013102;28;20021;-76
2024/01/20 11:53:10;;;;;;;8.45;5.60;;;3.40;81.60;;;;;;5027112;28;20053;-76
2024/01/20 11:55:36;;;;;;;8.95;6.13;;;3.40;81.60;;;;;;5039128;28;20029;-90
2024/01/20 11:58:02;;;;;;;10.80;6.50;;;3.40;81.60;;;;;;5012576;28;20049;-80
2024/01/20 12:00:30;;;;;;;9.43;5.90;;;3.40;81.60;;;;;;5026239;28;20505;-76
2024/01/20 12:02:56;;;;;;;10.00;6.47;;;3.40;81.60;;;;;;5044096;28;20056;-79
2024/01/20 12:05:22;;;;;;;9.32;6.40;;;3.40;81.50;;;;;;5026491;28;20072;-76
2024/01/20 12:07:51;;;;;;;9.95;6.55;;;3.40;81.50;;;;;;5043147;28;20075;-81
2024/01/20 12:10:17;;;;;;;8.73;5.65;;;3.50;81.60;;;;;;5046224;28;20123;-76
2024/01/20 12:12:46;;;;;;;10.05;6.72;;;3.40;81.50;;;;;;5026622;28;20091;-86
2024/01/20 12:15:14;;;;;;;9.80;6.63;;;3.50;81.60;;;;;;5030416;28;20029;-88
2024/01/20 12:17:40;;;;;;;9.18;6.32;;;3.50;81.60;;;;;;5018604;28;20191;-80
2024/01/20 12:20:06;;;;;;;8.13;5.85;;;3.50;81.50;;;;;;5015560;28;20477;-89
2024/01/20 12:22:32;;;;;;;9.52;5.93;;;3.50;81.50;;;;;;5031493;28;20037;-89
2024/01/20 12:24:59;;;;;;;9.95;6.28;;;3.50;81.50;;;;;;5012503;28;20029;-76
2024/01/20 12:27:25;;;;;;;9.65;6.10;;;3.60;81.60;;;;;;5029332;28;20041;-76
2024/01/20 12:29:52;;;;;;;8.65;5.25;;;3.60;81.60;;;;;;5030362;28;20061;-81
2024/01/20 12:32:21;;;;;;;9.20;5.90;;;3.60;81.60;;;;;;5012183;28;20018;-81
2024/01/20 12:34:47;;;;;;;7.45;5.50;;;3.60;81.60;;;;;;5028050;28;20029;-80
2024/01/20 12:37:12;;;;;;;8.48;5.55;;;3.60;81.50;;;;;;5030660;28;20021;-80
2024/01/20 12:39:38;;;;;;;8.88;5.60;;;3.60;81.50;;;;;;5011705;28;20386;-76
2024/01/20 12:42:04;;;;;;;8.25;5.47;;;3.60;81.50;;;;;;5044181;28;20052;-76
2024/01/20 12:44:30;;;;;;;8.82;5.72;;;3.70;81.50;;;;;;5013553;28;20057;-81
2024/01/20 12:46:56;;;;;;;8.90;5.85;;;3.60;81.50;;;;;;5030031;28;20022;-80